343  
SHUS65 KGJT 192020  
FWOGJT  
 
DAILY FIRE WEATHER OBSERVATION  
NATIONAL WEATHER SERVICE GRAND JUNCTION CO  
212 PM MDT WED SEP 19 2018  
 
STATE OF THE WEATHER (W) 3  
DRY BULB TEMPERATURE 80 DEGREES FAHRENHEIT  
RELATIVE HUMIDITY (RH) 23 PERCENT  
LIGHTNING ACTIVITY LEVEL  
(LAL - MIDNIGHT TO 2 PM) 1  
WIND DIRECTION 135 DEGREES (C IF CALM)  
WIND SPEED 16 MPH  
MAX TEMP (2 PM - 2 PM) 93 DEGREES FAHRENHEIT  
MIN TEMP (2 PM - 2 PM) 62 DEGREES FAHRENHEIT  
MAX RH (2 PM - 2 PM) 34 PERCENT  
MIN RH (2 PM - 2 PM) 12 PERCENT  
PCPN DURATION 0.0 HOURS  
PCPN AMT (2 PM - 2 PM) 0.00 INCHES  
LAL (2 PM - 2 PM) 1  
 

 
 
METAR KGJT 191953Z 12014G20KT 10SM CLR 27/04 A2992 RMK AO2  
SLP060 T02670039  
 
CLICK HERE TO GO TO PREVIOUS BULLETINS.

The Nexlab CO Page
The Nexlab UT Page Main Text Page